sensor_id;sensor_type;location;lat;lon;timestamp;temperature;humidity
53534;DHT22;39421;53.204;6.568;2022-07-10T00:02:15;17.90;99.90
53534;DHT22;39421;53.204;6.568;2022-07-10T00:04:40;17.90;99.90
53534;DHT22;39421;53.204;6.568;2022-07-10T00:07:06;17.90;99.90
53534;DHT22;39421;53.204;6.568;2022-07-10T00:09:32;17.80;99.90
53534;DHT22;39421;53.204;6.568;2022-07-10T00:11:58;17.80;99.90
53534;DHT22;39421;53.204;6.568;2022-07-10T00:14:23;17.80;99.90
53534;DHT22;39421;53.204;6.568;2022-07-10T00:16:49;17.70;99.90
53534;DHT22;39421;53.204;6.568;2022-07-10T00:19:15;17.70;99.90
53534;DHT22;39421;53.204;6.568;2022-07-10T00:21:41;17.70;99.90
53534;DHT22;39421;53.204;6.568;2022-07-10T00:24:06;17.60;99.90
53534;DHT22;39421;53.204;6.568;2022-07-10T00:26:32;17.50;99.90
53534;DHT22;39421;53.204;6.568;2022-07-10T00:28:58;17.50;99.90
53534;DHT22;39421;53.204;6.568;2022-07-10T00:31:24;17.50;99.90
53534;DHT22;39421;53.204;6.568;2022-07-10T00:33:49;17.50;99.90
53534;DHT22;39421;53.204;6.568;2022-07-10T00:36:16;17.40;99.90
53534;DHT22;39421;53.204;6.568;2022-07-10T00:38:42;17.40;99.90
53534;DHT22;39421;53.204;6.568;2022-07-10T00:41:08;17.40;99.90
53534;DHT22;39421;53.204;6.568;2022-07-10T00:44:00;17.40;99.90
53534;DHT22;39421;53.204;6.568;2022-07-10T00:46:28;17.40;99.90
53534;DHT22;39421;53.204;6.568;2022-07-10T00:48:54;17.40;99.90
53534;DHT22;39421;53.204;6.568;2022-07-10T00:51:21;17.40;99.90
53534;DHT22;39421;53.204;6.568;2022-07-10T00:53:50;17.40;99.90
53534;DHT22;39421;53.204;6.568;2022-07-10T00:56:21;17.40;99.90
53534;DHT22;39421;53.204;6.568;2022-07-10T00:58:48;17.40;99.90
53534;DHT22;39421;53.204;6.568;2022-07-10T01:01:15;17.40;99.90
53534;DHT22;39421;53.204;6.568;2022-07-10T01:03:42;17.40;99.90
53534;DHT22;39421;53.204;6.568;2022-07-10T01:06:09;17.40;99.90
53534;DHT22;39421;53.204;6.568;2022-07-10T01:08:35;17.30;99.90
53534;DHT22;39421;53.204;6.568;2022-07-10T01:11:01;17.30;99.90
53534;DHT22;39421;53.204;6.568;2022-07-10T01:13:27;17.20;99.90
53534;DHT22;39421;53.204;6.568;2022-07-10T01:15:53;17.20;99.90
53534;DHT22;39421;53.204;6.568;2022-07-10T01:18:19;17.20;99.90
53534;DHT22;39421;53.204;6.568;2022-07-10T01:20:46;17.20;99.90
53534;DHT22;39421;53.204;6.568;2022-07-10T01:23:12;17.20;99.90
53534;DHT22;39421;53.204;6.568;2022-07-10T01:25:37;17.20;99.90
53534;DHT22;39421;53.204;6.568;2022-07-10T01:28:03;17.20;99.90
53534;DHT22;39421;53.204;6.568;2022-07-10T01:30:29;17.20;99.90
53534;DHT22;39421;53.204;6.568;2022-07-10T01:32:55;17.20;99.90
53534;DHT22;39421;53.204;6.568;2022-07-10T01:35:20;17.30;99.90
53534;DHT22;39421;53.204;6.568;2022-07-10T01:37:46;17.20;99.90
53534;DHT22;39421;53.204;6.568;2022-07-10T01:40:12;17.20;99.90
53534;DHT22;39421;53.204;6.568;2022-07-10T01:42:38;17.30;99.90
53534;DHT22;39421;53.204;6.568;2022-07-10T01:45:09;17.30;99.90
53534;DHT22;39421;53.204;6.568;2022-07-10T01:47:35;17.30;99.90
53534;DHT22;39421;53.204;6.568;2022-07-10T01:50:02;17.30;99.90
53534;DHT22;39421;53.204;6.568;2022-07-10T01:52:28;17.30;99.90
53534;DHT22;39421;53.204;6.568;2022-07-10T01:54:53;17.40;99.90
53534;DHT22;39421;53.204;6.568;2022-07-10T01:57:19;17.40;99.90
53534;DHT22;39421;53.204;6.568;2022-07-10T01:59:45;17.40;99.90
53534;DHT22;39421;53.204;6.568;2022-07-10T02:02:11;17.30;99.90
53534;DHT22;39421;53.204;6.568;2022-07-10T02:04:36;17.20;99.90
53534;DHT22;39421;53.204;6.568;2022-07-10T02:07:16;17.20;99.90
53534;DHT22;39421;53.204;6.568;2022-07-10T02:09:43;17.10;99.90
53534;DHT22;39421;53.204;6.568;2022-07-10T02:12:10;17.00;99.90
53534;DHT22;39421;53.204;6.568;2022-07-10T02:14:36;16.90;99.90
53534;DHT22;39421;53.204;6.568;2022-07-10T02:17:03;16.90;99.90
53534;DHT22;39421;53.204;6.568;2022-07-10T02:19:29;16.90;99.90
53534;DHT22;39421;53.204;6.568;2022-07-10T02:21:55;16.90;99.90
53534;DHT22;39421;53.204;6.568;2022-07-10T02:24:21;16.90;99.90
53534;DHT22;39421;53.204;6.568;2022-07-10T02:26:49;16.90;99.90
53534;DHT22;39421;53.204;6.568;2022-07-10T02:29:15;16.90;99.90
53534;DHT22;39421;53.204;6.568;2022-07-10T02:31:41;16.90;99.90
53534;DHT22;39421;53.204;6.568;2022-07-10T02:34:10;16.80;99.90
53534;DHT22;39421;53.204;6.568;2022-07-10T02:36:37;16.70;99.90
53534;DHT22;39421;53.204;6.568;2022-07-10T02:39:05;16.70;99.90
53534;DHT22;39421;53.204;6.568;2022-07-10T02:41:31;16.70;99.90
53534;DHT22;39421;53.204;6.568;2022-07-10T02:43:57;16.60;99.90
53534;DHT22;39421;53.204;6.568;2022-07-10T02:46:22;16.70;99.90
53534;DHT22;39421;53.204;6.568;2022-07-10T02:48:48;16.70;99.90
53534;DHT22;39421;53.204;6.568;2022-07-10T02:51:14;16.70;99.90
53534;DHT22;39421;53.204;6.568;2022-07-10T02:53:40;16.70;99.90
53534;DHT22;39421;53.204;6.568;2022-07-10T02:56:06;16.70;99.90
53534;DHT22;39421;53.204;6.568;2022-07-10T02:58:32;16.70;99.90
53534;DHT22;39421;53.204;6.568;2022-07-10T03:00:58;16.70;99.90
53534;DHT22;39421;53.204;6.568;2022-07-10T03:03:24;16.70;99.90
53534;DHT22;39421;53.204;6.568;2022-07-10T03:05:50;16.70;99.90
53534;DHT22;39421;53.204;6.568;2022-07-10T03:08:16;16.70;99.90
53534;DHT22;39421;53.204;6.568;2022-07-10T03:10:41;16.80;99.90
53534;DHT22;39421;53.204;6.568;2022-07-10T03:13:07;16.90;99.90
53534;DHT22;39421;53.204;6.568;2022-07-10T03:15:33;16.90;99.90
53534;DHT22;39421;53.204;6.568;2022-07-10T03:17:59;17.00;99.90
53534;DHT22;39421;53.204;6.568;2022-07-10T03:20:25;16.90;99.90
53534;DHT22;39421;53.204;6.568;2022-07-10T03:22:50;16.90;99.90
53534;DHT22;39421;53.204;6.568;2022-07-10T03:25:17;16.90;99.90
53534;DHT22;39421;53.204;6.568;2022-07-10T03:27:42;17.00;99.90
53534;DHT22;39421;53.204;6.568;2022-07-10T03:30:09;17.00;99.90
53534;DHT22;39421;53.204;6.568;2022-07-10T03:32:35;17.00;99.90
53534;DHT22;39421;53.204;6.568;2022-07-10T03:35:00;17.00;99.90
53534;DHT22;39421;53.204;6.568;2022-07-10T03:37:26;17.10;99.90
53534;DHT22;39421;53.204;6.568;2022-07-10T03:39:52;17.10;99.90
53534;DHT22;39421;53.204;6.568;2022-07-10T03:42:17;17.20;99.90
53534;DHT22;39421;53.204;6.568;2022-07-10T03:44:43;17.30;99.90
53534;DHT22;39421;53.204;6.568;2022-07-10T03:47:09;17.30;99.90
53534;DHT22;39421;53.204;6.568;2022-07-10T03:49:35;17.30;99.90
53534;DHT22;39421;53.204;6.568;2022-07-10T03:52:02;17.30;99.90
53534;DHT22;39421;53.204;6.568;2022-07-10T03:54:29;17.40;99.90
53534;DHT22;39421;53.204;6.568;2022-07-10T03:56:56;17.40;99.90
53534;DHT22;39421;53.204;6.568;2022-07-10T03:59:40;17.30;99.90
53534;DHT22;39421;53.204;6.568;2022-07-10T04:02:06;17.30;99.90
53534;DHT22;39421;53.204;6.568;2022-07-10T04:04:32;17.30;99.90
53534;DHT22;39421;53.204;6.568;2022-07-10T04:06:57;17.20;99.90
53534;DHT22;39421;53.204;6.568;2022-07-10T04:09:23;17.20;99.90
53534;DHT22;39421;53.204;6.568;2022-07-10T04:11:49;17.20;99.90
53534;DHT22;39421;53.204;6.568;2022-07-10T04:14:15;17.20;99.90
53534;DHT22;39421;53.204;6.568;2022-07-10T04:16:40;17.30;99.90
53534;DHT22;39421;53.204;6.568;2022-07-10T04:19:06;17.30;99.90
53534;DHT22;39421;53.204;6.568;2022-07-10T04:21:32;17.40;99.90
53534;DHT22;39421;53.204;6.568;2022-07-10T04:23:58;17.30;99.90
53534;DHT22;39421;53.204;6.568;2022-07-10T04:26:23;17.40;99.90
53534;DHT22;39421;53.204;6.568;2022-07-10T04:28:49;17.40;99.90
53534;DHT22;39421;53.204;6.568;2022-07-10T04:31:15;17.40;99.90
53534;DHT22;39421;53.204;6.568;2022-07-10T04:33:40;17.40;99.90
53534;DHT22;39421;53.204;6.568;2022-07-10T04:36:06;17.30;99.90
53534;DHT22;39421;53.204;6.568;2022-07-10T04:38:32;17.30;99.90
53534;DHT22;39421;53.204;6.568;2022-07-10T04:40:58;17.30;99.90
53534;DHT22;39421;53.204;6.568;2022-07-10T04:43:25;17.30;99.90
53534;DHT22;39421;53.204;6.568;2022-07-10T04:45:51;17.30;99.90
53534;DHT22;39421;53.204;6.568;2022-07-10T04:48:17;17.20;99.90
53534;DHT22;39421;53.204;6.568;2022-07-10T04:50:42;17.20;99.90
53534;DHT22;39421;53.204;6.568;2022-07-10T04:53:08;17.20;99.90
53534;DHT22;39421;53.204;6.568;2022-07-10T04:55:34;17.20;99.90
53534;DHT22;39421;53.204;6.568;2022-07-10T04:58:00;17.30;99.90
53534;DHT22;39421;53.204;6.568;2022-07-10T05:00:25;17.30;99.90
53534;DHT22;39421;53.204;6.568;2022-07-10T05:02:51;17.30;99.90
53534;DHT22;39421;53.204;6.568;2022-07-10T05:05:17;17.30;99.90
53534;DHT22;39421;53.204;6.568;2022-07-10T05:07:43;17.30;99.90
53534;DHT22;39421;53.204;6.568;2022-07-10T05:10:09;17.30;99.90
53534;DHT22;39421;53.204;6.568;2022-07-10T05:12:34;17.30;99.90
53534;DHT22;39421;53.204;6.568;2022-07-10T05:15:00;17.30;99.90
53534;DHT22;39421;53.204;6.568;2022-07-10T05:17:26;17.30;99.90
53534;DHT22;39421;53.204;6.568;2022-07-10T05:19:54;17.40;99.90
53534;DHT22;39421;53.204;6.568;2022-07-10T05:22:21;17.40;99.90
53534;DHT22;39421;53.204;6.568;2022-07-10T05:24:47;17.50;99.90
53534;DHT22;39421;53.204;6.568;2022-07-10T05:27:13;17.50;99.90
53534;DHT22;39421;53.204;6.568;2022-07-10T05:29:39;17.40;99.90
53534;DHT22;39421;53.204;6.568;2022-07-10T05:32:05;17.40;99.90
53534;DHT22;39421;53.204;6.568;2022-07-10T05:34:30;17.40;99.90
53534;DHT22;39421;53.204;6.568;2022-07-10T05:36:56;17.40;99.90
53534;DHT22;39421;53.204;6.568;2022-07-10T05:39:22;17.50;99.90
53534;DHT22;39421;53.204;6.568;2022-07-10T05:41:51;17.50;99.90
53534;DHT22;39421;53.204;6.568;2022-07-10T05:44:18;17.60;99.90
53534;DHT22;39421;53.204;6.568;2022-07-10T05:46:45;17.60;99.90
53534;DHT22;39421;53.204;6.568;2022-07-10T05:49:11;17.60;99.90
53534;DHT22;39421;53.204;6.568;2022-07-10T05:51:37;17.70;99.90
53534;DHT22;39421;53.204;6.568;2022-07-10T05:54:03;17.70;99.90
53534;DHT22;39421;53.204;6.568;2022-07-10T05:56:29;17.70;99.90
53534;DHT22;39421;53.204;6.568;2022-07-10T05:58:55;17.60;99.90
53534;DHT22;39421;53.204;6.568;2022-07-10T06:01:24;17.70;99.90
53534;DHT22;39421;53.204;6.568;2022-07-10T06:03:51;17.70;99.90
53534;DHT22;39421;53.204;6.568;2022-07-10T06:06:17;17.80;99.90
53534;DHT22;39421;53.204;6.568;2022-07-10T06:08:44;17.70;99.90
53534;DHT22;39421;53.204;6.568;2022-07-10T06:11:10;17.70;99.90
53534;DHT22;39421;53.204;6.568;2022-07-10T06:13:36;17.70;99.90
53534;DHT22;39421;53.204;6.568;2022-07-10T06:16:02;17.60;99.90
53534;DHT22;39421;53.204;6.568;2022-07-10T06:18:30;17.50;99.90
53534;DHT22;39421;53.204;6.568;2022-07-10T06:20:56;17.50;99.90
53534;DHT22;39421;53.204;6.568;2022-07-10T06:23:21;17.50;99.90
53534;DHT22;39421;53.204;6.568;2022-07-10T06:25:47;17.50;99.90
53534;DHT22;39421;53.204;6.568;2022-07-10T06:28:15;17.60;99.90
53534;DHT22;39421;53.204;6.568;2022-07-10T06:30:41;17.70;99.90
53534;DHT22;39421;53.204;6.568;2022-07-10T06:33:07;17.70;99.90
53534;DHT22;39421;53.204;6.568;2022-07-10T06:35:32;17.70;99.90
53534;DHT22;39421;53.204;6.568;2022-07-10T06:37:58;17.70;99.90
53534;DHT22;39421;53.204;6.568;2022-07-10T06:40:25;17.70;99.90
53534;DHT22;39421;53.204;6.568;2022-07-10T06:42:51;17.70;99.90
53534;DHT22;39421;53.204;6.568;2022-07-10T06:45:17;17.70;99.90
53534;DHT22;39421;53.204;6.568;2022-07-10T06:47:43;17.70;99.90
53534;DHT22;39421;53.204;6.568;2022-07-10T06:50:29;17.70;99.90
53534;DHT22;39421;53.204;6.568;2022-07-10T06:53:00;17.60;99.90
53534;DHT22;39421;53.204;6.568;2022-07-10T06:55:26;17.70;99.90
53534;DHT22;39421;53.204;6.568;2022-07-10T06:57:52;17.60;99.90
53534;DHT22;39421;53.204;6.568;2022-07-10T07:00:18;17.60;99.90
53534;DHT22;39421;53.204;6.568;2022-07-10T07:02:44;17.60;99.90
53534;DHT22;39421;53.204;6.568;2022-07-10T07:05:11;17.60;99.90
53534;DHT22;39421;53.204;6.568;2022-07-10T07:07:37;17.70;99.90
53534;DHT22;39421;53.204;6.568;2022-07-10T07:10:03;17.80;99.90
53534;DHT22;39421;53.204;6.568;2022-07-10T07:12:29;17.80;99.90
53534;DHT22;39421;53.204;6.568;2022-07-10T07:14:55;17.80;99.90
53534;DHT22;39421;53.204;6.568;2022-07-10T07:17:21;17.80;99.90
53534;DHT22;39421;53.204;6.568;2022-07-10T07:19:52;17.70;99.90
53534;DHT22;39421;53.204;6.568;2022-07-10T07:22:39;17.70;99.90
53534;DHT22;39421;53.204;6.568;2022-07-10T07:25:24;17.80;99.90
53534;DHT22;39421;53.204;6.568;2022-07-10T07:27:49;17.70;99.90
53534;DHT22;39421;53.204;6.568;2022-07-10T07:30:15;17.70;99.90
53534;DHT22;39421;53.204;6.568;2022-07-10T07:32:42;17.70;99.90
53534;DHT22;39421;53.204;6.568;2022-07-10T07:35:09;17.80;99.90
53534;DHT22;39421;53.204;6.568;2022-07-10T07:37:40;17.80;99.90
53534;DHT22;39421;53.204;6.568;2022-07-10T07:40:11;17.90;99.90
53534;DHT22;39421;53.204;6.568;2022-07-10T07:42:38;17.90;99.90
53534;DHT22;39421;53.204;6.568;2022-07-10T07:45:05;17.90;99.90
53534;DHT22;39421;53.204;6.568;2022-07-10T07:47:39;17.80;99.90
53534;DHT22;39421;53.204;6.568;2022-07-10T07:50:08;17.90;99.90
53534;DHT22;39421;53.204;6.568;2022-07-10T07:52:34;17.90;99.90
53534;DHT22;39421;53.204;6.568;2022-07-10T07:55:01;18.00;99.90
53534;DHT22;39421;53.204;6.568;2022-07-10T07:57:27;18.00;99.90
53534;DHT22;39421;53.204;6.568;2022-07-10T07:59:53;18.10;99.90
53534;DHT22;39421;53.204;6.568;2022-07-10T08:02:19;18.10;99.90
53534;DHT22;39421;53.204;6.568;2022-07-10T08:04:44;18.10;99.90
53534;DHT22;39421;53.204;6.568;2022-07-10T08:07:10;18.10;99.90
53534;DHT22;39421;53.204;6.568;2022-07-10T08:09:36;18.10;99.90
53534;DHT22;39421;53.204;6.568;2022-07-10T08:12:01;18.10;99.90
53534;DHT22;39421;53.204;6.568;2022-07-10T08:14:27;18.10;99.90
53534;DHT22;39421;53.204;6.568;2022-07-10T08:16:53;18.20;99.90
53534;DHT22;39421;53.204;6.568;2022-07-10T08:19:19;18.10;99.90
53534;DHT22;39421;53.204;6.568;2022-07-10T08:21:44;18.10;99.90
53534;DHT22;39421;53.204;6.568;2022-07-10T08:24:10;18.10;99.90
53534;DHT22;39421;53.204;6.568;2022-07-10T08:26:36;18.10;99.90
53534;DHT22;39421;53.204;6.568;2022-07-10T08:29:01;18.20;99.90
53534;DHT22;39421;53.204;6.568;2022-07-10T08:31:27;18.20;99.90
53534;DHT22;39421;53.204;6.568;2022-07-10T08:33:53;18.30;99.90
53534;DHT22;39421;53.204;6.568;2022-07-10T08:36:18;18.40;99.90
53534;DHT22;39421;53.204;6.568;2022-07-10T08:38:44;18.50;99.90
53534;DHT22;39421;53.204;6.568;2022-07-10T08:41:11;18.60;99.90
53534;DHT22;39421;53.204;6.568;2022-07-10T08:43:38;18.60;99.90
53534;DHT22;39421;53.204;6.568;2022-07-10T08:46:05;18.60;99.90
53534;DHT22;39421;53.204;6.568;2022-07-10T08:48:32;18.60;99.90
53534;DHT22;39421;53.204;6.568;2022-07-10T08:51:04;18.70;99.90
53534;DHT22;39421;53.204;6.568;2022-07-10T08:53:32;18.70;99.90
53534;DHT22;39421;53.204;6.568;2022-07-10T08:55:59;18.70;99.90
53534;DHT22;39421;53.204;6.568;2022-07-10T08:58:26;18.70;99.90
53534;DHT22;39421;53.204;6.568;2022-07-10T09:00:52;18.70;99.90
53534;DHT22;39421;53.204;6.568;2022-07-10T09:03:19;18.80;99.90
53534;DHT22;39421;53.204;6.568;2022-07-10T09:05:45;18.90;99.90
53534;DHT22;39421;53.204;6.568;2022-07-10T09:08:28;18.90;99.90
53534;DHT22;39421;53.204;6.568;2022-07-10T09:11:17;19.00;99.90
53534;DHT22;39421;53.204;6.568;2022-07-10T09:14:05;19.00;99.90
53534;DHT22;39421;53.204;6.568;2022-07-10T09:16:35;19.00;99.90
53534;DHT22;39421;53.204;6.568;2022-07-10T09:19:18;19.00;99.90
53534;DHT22;39421;53.204;6.568;2022-07-10T09:21:45;19.10;99.90
53534;DHT22;39421;53.204;6.568;2022-07-10T09:24:12;19.10;99.90
53534;DHT22;39421;53.204;6.568;2022-07-10T09:26:38;19.10;99.90
53534;DHT22;39421;53.204;6.568;2022-07-10T09:29:09;19.20;99.90
53534;DHT22;39421;53.204;6.568;2022-07-10T09:31:52;19.20;99.90
53534;DHT22;39421;53.204;6.568;2022-07-10T09:37:23;19.20;99.90
53534;DHT22;39421;53.204;6.568;2022-07-10T09:40:03;19.20;99.90
53534;DHT22;39421;53.204;6.568;2022-07-10T09:42:36;19.10;99.90
53534;DHT22;39421;53.204;6.568;2022-07-10T09:47:59;18.90;99.90
53534;DHT22;39421;53.204;6.568;2022-07-10T09:50:34;18.80;99.90
53534;DHT22;39421;53.204;6.568;2022-07-10T09:53:01;18.80;99.90
53534;DHT22;39421;53.204;6.568;2022-07-10T09:55:31;18.70;99.90
53534;DHT22;39421;53.204;6.568;2022-07-10T09:57:59;18.70;99.90
53534;DHT22;39421;53.204;6.568;2022-07-10T10:02:57;18.50;99.90
53534;DHT22;39421;53.204;6.568;2022-07-10T10:05:51;18.40;99.90
53534;DHT22;39421;53.204;6.568;2022-07-10T10:08:30;18.40;99.90
53534;DHT22;39421;53.204;6.568;2022-07-10T10:10:58;18.50;99.90
53534;DHT22;39421;53.204;6.568;2022-07-10T10:13:27;18.50;99.90
53534;DHT22;39421;53.204;6.568;2022-07-10T10:15:53;18.50;99.90
53534;DHT22;39421;53.204;6.568;2022-07-10T10:18:21;18.50;99.90
53534;DHT22;39421;53.204;6.568;2022-07-10T10:20:48;18.60;99.90
53534;DHT22;39421;53.204;6.568;2022-07-10T10:23:19;18.70;99.90
53534;DHT22;39421;53.204;6.568;2022-07-10T10:25:57;18.70;99.90
53534;DHT22;39421;53.204;6.568;2022-07-10T10:28:24;18.70;99.90
53534;DHT22;39421;53.204;6.568;2022-07-10T10:30:55;18.70;99.90
53534;DHT22;39421;53.204;6.568;2022-07-10T10:36:09;18.80;99.90
53534;DHT22;39421;53.204;6.568;2022-07-10T10:41:28;19.00;99.90
53534;DHT22;39421;53.204;6.568;2022-07-10T10:49:16;19.20;99.90
53534;DHT22;39421;53.204;6.568;2022-07-10T10:51:57;19.20;99.90
53534;DHT22;39421;53.204;6.568;2022-07-10T10:54:24;19.20;99.90
53534;DHT22;39421;53.204;6.568;2022-07-10T10:57:13;19.10;99.90
53534;DHT22;39421;53.204;6.568;2022-07-10T10:59:51;18.90;99.90
53534;DHT22;39421;53.204;6.568;2022-07-10T11:02:31;18.80;99.90
53534;DHT22;39421;53.204;6.568;2022-07-10T11:08:05;18.70;99.90
53534;DHT22;39421;53.204;6.568;2022-07-10T11:10:37;18.80;99.90
53534;DHT22;39421;53.204;6.568;2022-07-10T11:15:32;19.00;99.90
53534;DHT22;39421;53.204;6.568;2022-07-10T11:18:15;19.10;99.90
53534;DHT22;39421;53.204;6.568;2022-07-10T11:20:46;19.30;99.90
53534;DHT22;39421;53.204;6.568;2022-07-10T11:23:37;19.40;99.90
53534;DHT22;39421;53.204;6.568;2022-07-10T11:26:10;19.60;99.90
53534;DHT22;39421;53.204;6.568;2022-07-10T11:29:02;19.80;99.90
53534;DHT22;39421;53.204;6.568;2022-07-10T11:31:28;19.90;99.90
53534;DHT22;39421;53.204;6.568;2022-07-10T11:33:56;19.90;99.90
53534;DHT22;39421;53.204;6.568;2022-07-10T11:36:23;19.90;99.90
53534;DHT22;39421;53.204;6.568;2022-07-10T11:39:03;19.80;99.90
53534;DHT22;39421;53.204;6.568;2022-07-10T11:41:30;19.60;99.90
53534;DHT22;39421;53.204;6.568;2022-07-10T11:44:00;19.60;99.90
53534;DHT22;39421;53.204;6.568;2022-07-10T11:46:31;19.60;99.90
53534;DHT22;39421;53.204;6.568;2022-07-10T11:48:58;19.60;99.90
53534;DHT22;39421;53.204;6.568;2022-07-10T11:51:25;19.70;99.90
53534;DHT22;39421;53.204;6.568;2022-07-10T11:53:55;19.60;99.90
53534;DHT22;39421;53.204;6.568;2022-07-10T11:56:21;19.50;99.90
53534;DHT22;39421;53.204;6.568;2022-07-10T11:58:55;19.50;99.90
53534;DHT22;39421;53.204;6.568;2022-07-10T12:01:20;19.40;99.90
53534;DHT22;39421;53.204;6.568;2022-07-10T12:04:08;19.40;99.90
53534;DHT22;39421;53.204;6.568;2022-07-10T12:06:37;19.50;99.90
53534;DHT22;39421;53.204;6.568;2022-07-10T12:09:06;19.50;99.90
53534;DHT22;39421;53.204;6.568;2022-07-10T12:11:32;19.50;99.90
53534;DHT22;39421;53.204;6.568;2022-07-10T12:16:36;19.50;99.90
53534;DHT22;39421;53.204;6.568;2022-07-10T12:19:02;19.50;99.90
53534;DHT22;39421;53.204;6.568;2022-07-10T12:21:28;19.50;99.90
53534;DHT22;39421;53.204;6.568;2022-07-10T12:23:55;19.60;99.90
53534;DHT22;39421;53.204;6.568;2022-07-10T12:26:22;19.70;99.90
53534;DHT22;39421;53.204;6.568;2022-07-10T12:28:53;19.80;99.90
53534;DHT22;39421;53.204;6.568;2022-07-10T12:31:29;19.80;99.90
53534;DHT22;39421;53.204;6.568;2022-07-10T12:34:02;19.70;99.90
53534;DHT22;39421;53.204;6.568;2022-07-10T12:36:51;19.70;99.90
53534;DHT22;39421;53.204;6.568;2022-07-10T12:39:22;19.70;99.90
53534;DHT22;39421;53.204;6.568;2022-07-10T12:42:05;19.70;99.90
53534;DHT22;39421;53.204;6.568;2022-07-10T12:44:37;19.60;99.90
53534;DHT22;39421;53.204;6.568;2022-07-10T12:47:10;19.50;99.90
53534;DHT22;39421;53.204;6.568;2022-07-10T12:50:02;19.50;99.90
53534;DHT22;39421;53.204;6.568;2022-07-10T12:52:48;19.30;99.90
53534;DHT22;39421;53.204;6.568;2022-07-10T12:55:19;19.30;99.90
53534;DHT22;39421;53.204;6.568;2022-07-10T12:57:56;19.20;99.90
53534;DHT22;39421;53.204;6.568;2022-07-10T13:00:28;19.20;99.90
53534;DHT22;39421;53.204;6.568;2022-07-10T13:03:05;19.20;99.90
53534;DHT22;39421;53.204;6.568;2022-07-10T13:05:34;19.20;99.90
53534;DHT22;39421;53.204;6.568;2022-07-10T13:08:09;19.20;99.90
53534;DHT22;39421;53.204;6.568;2022-07-10T13:10:39;19.10;99.90
53534;DHT22;39421;53.204;6.568;2022-07-10T13:13:05;19.10;99.90
53534;DHT22;39421;53.204;6.568;2022-07-10T13:15:32;19.00;99.90
53534;DHT22;39421;53.204;6.568;2022-07-10T13:18:05;19.00;99.90
53534;DHT22;39421;53.204;6.568;2022-07-10T13:20:37;19.00;99.90
53534;DHT22;39421;53.204;6.568;2022-07-10T13:23:09;19.00;99.90
53534;DHT22;39421;53.204;6.568;2022-07-10T13:25:38;19.10;99.90
53534;DHT22;39421;53.204;6.568;2022-07-10T13:28:23;19.20;99.90
53534;DHT22;39421;53.204;6.568;2022-07-10T13:30:49;19.20;99.90
53534;DHT22;39421;53.204;6.568;2022-07-10T13:33:16;19.20;99.90
53534;DHT22;39421;53.204;6.568;2022-07-10T13:35:44;19.20;99.90
53534;DHT22;39421;53.204;6.568;2022-07-10T13:38:10;19.20;99.90
53534;DHT22;39421;53.204;6.568;2022-07-10T13:40:38;19.20;99.90
53534;DHT22;39421;53.204;6.568;2022-07-10T13:43:04;19.40;99.90
53534;DHT22;39421;53.204;6.568;2022-07-10T13:45:35;19.50;99.90
53534;DHT22;39421;53.204;6.568;2022-07-10T13:48:15;19.50;99.90
53534;DHT22;39421;53.204;6.568;2022-07-10T13:50:43;19.60;99.90
53534;DHT22;39421;53.204;6.568;2022-07-10T13:53:12;19.60;99.90
53534;DHT22;39421;53.204;6.568;2022-07-10T13:55:38;19.60;99.90
53534;DHT22;39421;53.204;6.568;2022-07-10T13:58:04;19.50;99.90
53534;DHT22;39421;53.204;6.568;2022-07-10T14:00:30;19.60;99.90
53534;DHT22;39421;53.204;6.568;2022-07-10T14:02:56;19.60;99.90
53534;DHT22;39421;53.204;6.568;2022-07-10T14:05:23;19.80;99.90
53534;DHT22;39421;53.204;6.568;2022-07-10T14:07:49;19.80;99.90
53534;DHT22;39421;53.204;6.568;2022-07-10T14:10:15;19.90;99.90
53534;DHT22;39421;53.204;6.568;2022-07-10T14:12:42;20.00;99.90
53534;DHT22;39421;53.204;6.568;2022-07-10T14:15:08;20.00;99.90
53534;DHT22;39421;53.204;6.568;2022-07-10T14:17:34;20.10;99.90
53534;DHT22;39421;53.204;6.568;2022-07-10T14:20:00;20.10;99.90
53534;DHT22;39421;53.204;6.568;2022-07-10T14:22:26;20.00;99.90
53534;DHT22;39421;53.204;6.568;2022-07-10T14:24:51;20.00;99.90
53534;DHT22;39421;53.204;6.568;2022-07-10T14:27:19;20.00;99.90
53534;DHT22;39421;53.204;6.568;2022-07-10T14:29:46;20.00;99.90
53534;DHT22;39421;53.204;6.568;2022-07-10T14:32:12;20.10;99.90
53534;DHT22;39421;53.204;6.568;2022-07-10T14:34:38;20.20;99.90
53534;DHT22;39421;53.204;6.568;2022-07-10T14:37:04;20.40;99.90
53534;DHT22;39421;53.204;6.568;2022-07-10T14:39:30;20.40;99.90
53534;DHT22;39421;53.204;6.568;2022-07-10T14:41:55;20.40;99.90
53534;DHT22;39421;53.204;6.568;2022-07-10T14:44:21;20.30;99.90
53534;DHT22;39421;53.204;6.568;2022-07-10T14:46:47;20.40;99.90
53534;DHT22;39421;53.204;6.568;2022-07-10T14:49:13;20.40;99.90
53534;DHT22;39421;53.204;6.568;2022-07-10T14:51:38;20.40;99.90
53534;DHT22;39421;53.204;6.568;2022-07-10T14:54:04;20.40;99.90
53534;DHT22;39421;53.204;6.568;2022-07-10T14:56:30;20.40;99.90
53534;DHT22;39421;53.204;6.568;2022-07-10T14:58:56;20.40;99.90
53534;DHT22;39421;53.204;6.568;2022-07-10T15:01:22;20.40;99.90
53534;DHT22;39421;53.204;6.568;2022-07-10T15:03:50;20.50;99.90
53534;DHT22;39421;53.204;6.568;2022-07-10T15:06:16;20.50;99.90
53534;DHT22;39421;53.204;6.568;2022-07-10T15:08:42;20.50;99.90
53534;DHT22;39421;53.204;6.568;2022-07-10T15:11:07;20.50;99.90
53534;DHT22;39421;53.204;6.568;2022-07-10T15:13:33;20.60;99.90
53534;DHT22;39421;53.204;6.568;2022-07-10T15:15:59;20.60;99.90
53534;DHT22;39421;53.204;6.568;2022-07-10T15:18:26;20.70;99.90
53534;DHT22;39421;53.204;6.568;2022-07-10T15:20:52;20.70;99.90
53534;DHT22;39421;53.204;6.568;2022-07-10T15:23:18;20.70;99.90
53534;DHT22;39421;53.204;6.568;2022-07-10T15:25:44;20.70;99.90
53534;DHT22;39421;53.204;6.568;2022-07-10T15:28:10;20.80;99.90
53534;DHT22;39421;53.204;6.568;2022-07-10T15:30:37;20.70;99.90
53534;DHT22;39421;53.204;6.568;2022-07-10T15:33:04;20.70;99.90
53534;DHT22;39421;53.204;6.568;2022-07-10T15:35:33;20.80;99.90
53534;DHT22;39421;53.204;6.568;2022-07-10T15:37:59;20.80;99.90
53534;DHT22;39421;53.204;6.568;2022-07-10T15:40:34;20.80;99.90
53534;DHT22;39421;53.204;6.568;2022-07-10T15:43:00;20.80;99.90
53534;DHT22;39421;53.204;6.568;2022-07-10T15:45:26;20.80;99.90
53534;DHT22;39421;53.204;6.568;2022-07-10T15:47:53;20.80;99.90
53534;DHT22;39421;53.204;6.568;2022-07-10T15:50:18;20.90;99.90
53534;DHT22;39421;53.204;6.568;2022-07-10T15:52:44;20.90;99.90
53534;DHT22;39421;53.204;6.568;2022-07-10T15:55:11;20.90;99.90
53534;DHT22;39421;53.204;6.568;2022-07-10T15:57:37;20.90;99.90
53534;DHT22;39421;53.204;6.568;2022-07-10T16:00:05;20.90;99.90
53534;DHT22;39421;53.204;6.568;2022-07-10T16:02:31;20.90;99.90
53534;DHT22;39421;53.204;6.568;2022-07-10T16:04:57;20.90;99.90